Monday, December 5, 2016, 11:31 AM EST

KLNS, Lancaster Airport

Location: Lititz, PA, United States Lat: 40.117
Local Time: 11:31 AM EST (16:31 GMT) Lon: -76.3
Time Zone: US/Eastern Elev: 403 ft

Show me the last for .
Show Decoded

2016-12-05 10:53 METAR KLNS 051553Z 26008KT 10SM OVC010 07/06 A3001 RMK AO2 SLP163 T00670056 =
2016-12-05 10:32 METAR KLNS 051532Z 25006KT 10SM OVC010 06/05 A3002 RMK AO2 T00610050 =
2016-12-05 09:53 METAR KLNS 051453Z 27006KT 8SM OVC009 06/05 A3001 RMK AO2 SLP166 60000 T00560050
                 53010 =
2016-12-05 09:39 METAR KLNS 051439Z 27006KT 8SM OVC009 06/05 A3002 RMK AO2 T00560050 =
2016-12-05 08:53 METAR KLNS 051353Z 26004KT 10SM OVC011 05/05 A3000 RMK AO2 SLP160 T00500050 =
2016-12-05 08:08 METAR KLNS 051308Z 22005KT 8SM OVC010 04/04 A3000 RMK AO2 T00440044 =
2016-12-05 07:53 METAR KLNS 051253Z 24005KT 10SM OVC009 04/04 A2999 RMK AO2 RAE10 SLP157 P0000
                 T00440044 =
2016-12-05 06:53 METAR KLNS 051153Z 23003KT 10SM -RA OVC009 04/04 A2998 RMK AO2 RAB1055 SLP156
                 P0000 60019 70020 T00440039 10044 20017 58000 =
2016-12-05 06:26 METAR KLNS 051126Z 16003KT 5SM -RA BR OVC009 03/03 A2998 RMK AO2 RAB1055 P0000
                 T00330033 =
2016-12-05 05:53 METAR KLNS 051053Z 07003KT 3SM BR OVC011 03/03 A2998 RMK AO2 RAB03E20 SLP154
                 P0000 T00280028 =
2016-12-05 04:53 METAR KLNS 050953Z AUTO 06003KT 5SM BR FEW004 OVC010 02/02 A2999 RMK AO2
                 RAE08B36E49UPB49E51 CIG 006V014 SLP159 P0000 T00220022 =
2016-12-05 04:04 METAR KLNS 050904Z AUTO 10004KT 4SM -RA BR OVC009 02/02 A2999 RMK AO2 P0000
                 T00170017 =
2016-12-05 03:53 METAR KLNS 050853Z AUTO 09004KT 2 1/2SM -RA BR BKN009 OVC013 02/02 A2999 RMK AO2
                 SLP156 P0005 60019 T00170017 58010 =
2016-12-05 02:53 METAR KLNS 050753Z AUTO 16003KT 6SM RA BR OVC009 02/02 A3001 RMK AO2 SLP166
                 P0007 T00220022 =
2016-12-05 02:08 METAR KLNS 050708Z AUTO 18007KT 5SM RA BR BKN012 OVC018 03/02 A3001 RMK AO2
                 P0002 T00280022 =
2016-12-05 01:53 METAR KLNS 050653Z AUTO 18007KT 5SM RA BR BKN016 OVC022 03/03 A3003 RMK AO2
                 SLP169 P0007 T00330028 =
2016-12-05 01:42 METAR KLNS 050642Z AUTO 17006KT 6SM RA BR BKN018 BKN023 OVC039 03/03 A3002 RMK
                 AO2 P0005 T00330028 =
2016-12-05 00:53 METAR KLNS 050553Z AUTO 16007KT 8SM -RA SCT029 OVC042 04/02 A3002 RMK AO2 SLP166
                 P0001 60001 T00390017 10050 20033 58028 =
2016-12-04 23:53 METAR KLNS 050453Z AUTO 17008KT 10SM -RA SCT040 OVC055 05/01 A3006 RMK AO2 RAB40
                 SLP180 P0000 T00500011 400780033 =
2016-12-04 22:53 METAR KLNS 050353Z AUTO 19006KT 10SM FEW060 BKN080 OVC100 05/00 A3010 RMK AO2
                 SLP193 T00500000 =
2016-12-04 21:53 METAR KLNS 050253Z 15005KT 10SM BKN110 04/00 A3010 RMK AO2 SLP195 T00440000
                 58018 =
2016-12-04 20:53 METAR KLNS 050153Z 16003KT 10SM CLR 04/00 A3013 RMK AO2 SLP206 T00440000 =
2016-12-04 19:53 METAR KLNS 050053Z 08004KT 10SM CLR 03/01 A3014 RMK AO2 SLP208 T00330006 =
2016-12-04 18:53 METAR KLNS 042353Z 00000KT 10SM CLR 05/M02 A3016 RMK AO2 SLP214 T00501017 10078
                 20044 58009 =
2016-12-04 17:53 METAR KLNS 042253Z 20004KT 10SM CLR 05/M02 A3018 RMK AO2 SLP221 T00501017 =
2016-12-04 16:53 METAR KLNS 042153Z 00000KT 10SM CLR 06/M02 A3018 RMK AO2 SLP221 T00561022 =
2016-12-04 15:53 METAR KLNS 042053Z 00000KT 10SM CLR 06/M01 A3018 RMK AO2 SLP222 T00611006 58009
                 =
2016-12-04 14:53 METAR KLNS 041953Z 29003KT 10SM CLR 07/M02 A3018 RMK AO2 SLP223 T00721017 =
2016-12-04 13:53 METAR KLNS 041853Z 33004KT 10SM CLR 07/M02 A3021 RMK AO2 SLP231 T00721017 =
2016-12-04 12:53 METAR KLNS 041753Z 30007KT 10SM CLR 07/M01 A3021 RMK AO2 SLP232 T00721011 10072
                 20044 58015 =
2016-12-04 11:53 METAR KLNS 041653Z 32004KT 10SM SCT039 06/M02 A3023 RMK AO2 SLP239 T00611022 =

Support USWX by starting your Amazon purchase here.